Stormwatcher's Retreat Logo




                  Temp     Hi    Low   Out    Dew  Wind  Wind   Wind    Hi    Hi   Wind   Heat    THW   THSW                Rain  Solar   Solar Hi Solar   UV    UV    Hi     Heat    Cool    In     In    In     In     In   In Air          Wind  Wind    ISS   Arc.
  Date    Time     Out   Temp   Temp   Hum    Pt. Speed   Dir    Run Speed   Dir  Chill  Index  Index  Index   Bar    Rain  Rate   Rad.  Energy    Rad.  Index  Dose   UV     D-D     D-D    Temp   Hum    Dew   Heat    EMC Density     ET   Samp   Tx   Recept  Int.
------------------------------------------------------------------------------------------------------------------------------------------------------------------------------------------------------------------------------------------------------------------------
 5/23/19 12:10a   53.6   53.6   53.5    89   50.4   6.0   ENE   1.00  12.0    NE   51.9   53.7   52.0   49.4  30.090  0.00  0.00     0     0.00      0     0.0  0.00   0.0   0.079   0.000   71.4    51   52.3   70.3   9.42  .0742    0.000   212    5    100.0   10 
 5/23/19 12:20a   53.6   53.6   53.5    89   50.4   4.0   ENE   0.67   9.0   ENE   53.0   53.7   53.1   50.5  30.094  0.00  0.00     0     0.00      0     0.0  0.00   0.0   0.079   0.000   71.4    51   52.3   70.3   9.42  .0742    0.000   212    5    100.0   10 
 5/23/19 12:30a   53.9   53.9   53.6    89   50.7   6.0    NE   1.00  11.0    NE   52.3   54.0   52.4   49.8  30.091  0.00  0.00     0     0.00      0     0.0  0.00   0.0   0.077   0.000   71.3    51   52.2   70.1   9.42  .0742    0.000   212    5    100.0   10 
 5/23/19 12:40a   53.8   53.9   53.8    89   50.6   7.0    NE   1.17  12.0    NE   51.8   53.9   51.9   49.3  30.087  0.00  0.00     0     0.00      0     0.0  0.00   0.0   0.078   0.000   71.3    51   52.2   70.1   9.42  .0742    0.000   213    5    100.0   10 
 5/23/19 12:50a   53.8   53.8   53.7    89   50.6   7.0    NE   1.17  15.0    NE   51.8   53.9   51.9   49.3  30.087  0.00  0.00     0     0.00      0     0.0  0.00   0.0   0.078   0.000   71.3    51   52.2   70.1   9.42  .0742    0.000   210    5    100.0   10 
 5/23/19  1:00a   53.9   53.9   53.8    89   50.7   7.0   NNE   1.17  12.0    NE   51.9   54.0   52.0   49.4  30.087  0.00  0.00     0     0.00      0     0.0  0.00   0.0   0.077   0.000   71.2    51   52.1   70.0   9.43  .0742    0.001   210    5    100.0   10 
 5/23/19  1:10a   53.8   53.9   53.8    88   50.3   7.0    NE   1.17  15.0   ENE   51.8   53.8   51.8   49.2  30.085  0.00  0.00     0     0.00      0     0.0  0.00   0.0   0.078   0.000   71.2    51   52.1   70.0   9.43  .0742    0.000   213    5    100.0   10 
 5/23/19  1:20a   53.9   53.9   53.8    89   50.7  10.0    NE   1.67  14.0    NE   49.9   54.0   50.0   47.7  30.084  0.00  0.00     0     0.00      0     0.0  0.00   0.0   0.077   0.000   71.2    51   52.1   70.0   9.43  .0742    0.000   212    5    100.0   10 
 5/23/19  1:30a   53.7   53.9   53.7    88   50.2   7.0    NE   1.17  13.0   NNE   51.6   53.7   51.6   49.0  30.081  0.00  0.00     0     0.00      0     0.0  0.00   0.0   0.078   0.000   71.1    51   52.0   69.8   9.43  .0742    0.000   211    5    100.0   10 
 5/23/19  1:40a   53.8   53.8   53.7    88   50.3   8.0    NE   1.33  13.0    NE   51.1   53.8   51.1   48.6  30.081  0.00  0.00     0     0.00      0     0.0  0.00   0.0   0.078   0.000   71.1    51   52.0   69.8   9.43  .0742    0.000   210    5    100.0   10 
 5/23/19  1:50a   53.8   53.8   53.7    88   50.3   7.0   ENE   1.17  12.0   ENE   51.8   53.8   51.8   49.2  30.078  0.00  0.00     0     0.00      0     0.0  0.00   0.0   0.078   0.000   71.0    51   52.0   69.7   9.43  .0742    0.000   213    5    100.0   10 
 5/23/19  2:00a   54.0   54.0   53.8    88   50.5   7.0    NE   1.17  12.0     N   52.0   54.0   52.0   49.4  30.076  0.00  0.00     0     0.00      0     0.0  0.00   0.0   0.076   0.000   71.0    51   52.0   69.7   9.43  .0742    0.001   213    5    100.0   10 
 5/23/19  2:10a   54.0   54.0   54.0    88   50.5   6.0   ENE   1.00  12.0    NE   52.4   54.0   52.4   49.8  30.081  0.00  0.00     0     0.00      0     0.0  0.00   0.0   0.076   0.000   71.0    50   51.4   69.6   9.25  .0742    0.000   211    5    100.0   10 
 5/23/19  2:20a   54.0   54.1   54.0    88   50.5   4.0   ENE   0.67  10.0   NNE   53.5   54.0   53.5   50.9  30.083  0.00  0.00     0     0.00      0     0.0  0.00   0.0   0.076   0.000   70.9    50   51.3   69.5   9.25  .0743    0.000   211    5    100.0   10 
 5/23/19  2:30a   54.0   54.0   53.9    88   50.5   5.0    NE   0.83  13.0    NE   52.9   54.0   52.9   50.3  30.083  0.00  0.00     0     0.00      0     0.0  0.00   0.0   0.076   0.000   70.9    50   51.3   69.5   9.25  .0743    0.000   213    5    100.0   10 
 5/23/19  2:40a   54.1   54.1   54.0    88   50.6   8.0   ENE   1.33  14.0    NE   51.4   54.1   51.4   48.9  30.083  0.00  0.00     0     0.00      0     0.0  0.00   0.0   0.076   0.000   70.9    50   51.3   69.5   9.25  .0743    0.000   214    5    100.0   10 
 5/23/19  2:50a   54.1   54.1   54.0    88   50.6   6.0   ENE   1.00  11.0    NE   52.5   54.1   52.5   49.9  30.082  0.00  0.00     0     0.00      0     0.0  0.00   0.0   0.076   0.000   70.8    50   51.2   69.3   9.25  .0743    0.000   212    5    100.0   10 
 5/23/19  3:00a   54.1   54.2   54.1    88   50.6   5.0   ENE   0.83   9.0    NE   53.0   54.1   53.0   50.4  30.079  0.00  0.00     0     0.00      0     0.0  0.00   0.0   0.076   0.000   70.8    50   51.2   69.3   9.25  .0743    0.001   213    5    100.0   10 
 5/23/19  3:10a   53.9   54.2   53.9    88   50.4   5.0   ENE   0.83   9.0   ENE   52.8   53.9   52.8   50.2  30.081  0.00  0.00     0     0.00      0     0.0  0.00   0.0   0.077   0.000   70.8    50   51.2   69.3   9.25  .0743    0.000   213    5    100.0   10 
 5/23/19  3:20a   53.9   53.9   53.8    88   50.4   6.0    NE   1.00  13.0    NE   52.3   53.9   52.3   49.7  30.077  0.00  0.00     0     0.00      0     0.0  0.00   0.0   0.077   0.000   70.7    50   51.1   69.2   9.25  .0743    0.000   212    5    100.0   10 
 5/23/19  3:30a   53.8   53.9   53.8    88   50.3   5.0   ENE   0.83  12.0   ENE   52.7   53.8   52.7   50.1  30.079  0.00  0.00     0     0.00      0     0.0  0.00   0.0   0.078   0.000   70.7    50   51.1   69.2   9.25  .0743    0.000   211    5    100.0   10 
 5/23/19  3:40a   53.7   53.9   53.7    88   50.2   6.0   ENE   1.00  12.0     E   52.0   53.7   52.0   49.4  30.075  0.00  0.00     0     0.00      0     0.0  0.00   0.0   0.078   0.000   70.6    50   51.1   69.1   9.25  .0743    0.000   211    5    100.0   10 
 5/23/19  3:50a   53.7   53.7   53.7    88   50.2   5.0   ENE   0.83  13.0   ENE   52.5   53.7   52.5   49.9  30.074  0.00  0.00     0     0.00      0     0.0  0.00   0.0   0.078   0.000   70.6    50   51.1   69.1   9.25  .0743    0.000   209    5    100.0   10 
 5/23/19  4:00a   53.6   53.7   53.6    88   50.1   3.0   ENE   0.50   5.0     E   53.6   53.6   53.6   51.0  30.072  0.00  0.00     0     0.00      0     0.0  0.00   0.0   0.079   0.000   70.6    50   51.1   69.1   9.25  .0743    0.001   213    5    100.0   10 
 5/23/19  4:10a   53.8   53.8   53.7    88   50.3   6.0    NE   1.00  12.0    NE   52.2   53.8   52.2   49.6  30.072  0.00  0.00     0     0.00      0     0.0  0.00   0.0   0.078   0.000   70.5    50   51.0   68.9   9.25  .0743    0.000   213    5    100.0   10 
 5/23/19  4:20a   53.8   53.8   53.8    88   50.3   7.0    NE   1.17  11.0   ENE   51.8   53.8   51.8   49.2  30.075  0.00  0.00     0     0.00      0     0.0  0.00   0.0   0.078   0.000   70.5    50   51.0   68.9   9.25  .0743    0.000   210    5    100.0   10 
 5/23/19  4:30a   53.9   53.9   53.8    88   50.4   9.0   NNE   1.50  17.0   NNE   50.5   53.9   50.5   48.1  30.079  0.00  0.00     0     0.00      0     0.0  0.00   0.0   0.077   0.000   70.4    50   50.9   68.8   9.25  .0743    0.000   213    5    100.0   10 
 5/23/19  4:40a   53.9   54.0   53.9    88   50.4   9.0   NNE   1.50  15.0   NNE   50.5   53.9   50.5   48.1  30.077  0.00  0.00     0     0.00      0     0.0  0.00   0.0   0.077   0.000   70.4    50   50.9   68.8   9.25  .0743    0.000   212    5    100.0   10 
 5/23/19  4:50a   53.7   53.9   53.7    88   50.2   7.0    NE   1.17  16.0   NNE   51.6   53.7   51.6   49.0  30.074  0.00  0.00     0     0.00      0     0.0  0.00   0.0   0.078   0.000   70.3    50   50.8   68.7   9.25  .0743    0.000   212    5    100.0   10 
 5/23/19  5:00a   53.7   53.8   53.7    88   50.2   8.0   ENE   1.33  14.0   NNE   50.9   53.7   50.9   48.4  30.074  0.00  0.00     0     0.00      0     0.0  0.00   0.0   0.078   0.000   70.3    50   50.8   68.7   9.25  .0743    0.001   211    5    100.0   10 
 5/23/19  5:10a   53.9   53.9   53.7    88   50.4   7.0    NE   1.17  12.0   ENE   51.9   53.9   51.9   49.3  30.074  0.00  0.00     0     0.00      0     0.0  0.00   0.0   0.077   0.000   70.3    50   50.8   68.7   9.25  .0743    0.000   214    5    100.0   10 
 5/23/19  5:20a   53.8   53.9   53.8    88   50.3   7.0    NE   1.17  13.0    NE   51.8   53.8   51.8   49.2  30.069  0.00  0.00     0     0.00      0     0.0  0.00   0.0   0.078   0.000   70.2    50   50.7   68.6   9.25  .0743    0.000   212    5    100.0   10 
 5/23/19  5:30a   53.8   53.8   53.8    88   50.3   6.0   ENE   1.00  13.0   ENE   52.2   53.8   52.2   49.6  30.067  0.00  0.00     0     0.00      0     0.0  0.00   0.0   0.078   0.000   70.2    50   50.7   68.6   9.25  .0743    0.000   213    5    100.0   10 
 5/23/19  5:40a   53.5   53.8   53.5    88   50.0   5.0   ENE   0.83  12.0     E   52.3   53.5   52.3   49.7  30.068  0.00  0.00     0     0.00      0     0.0  0.00   0.0   0.080   0.000   70.1    50   50.6   68.4   9.25  .0744    0.000   212    5    100.0   10 
 5/23/19  5:50a   53.5   53.5   53.4    88   50.0   6.0   ENE   1.00  14.0    NE   51.8   53.5   51.8   49.2  30.067  0.00  0.00     0     0.00      0     0.0  0.00   0.0   0.080   0.000   70.1    50   50.6   68.4   9.25  .0743    0.000   212    5    100.0   10 
 5/23/19  6:00a   53.4   53.5   53.4    88   49.9   6.0   ENE   1.00  11.0   ENE   51.7   53.4   51.7   49.0  30.064  0.00  0.00     0     0.00      0     0.0  0.00   0.0   0.081   0.000   70.1    50   50.6   68.4   9.25  .0743    0.001   214    5    100.0   10 
 5/23/19  6:10a   53.6   53.6   53.4    88   50.1   6.0    NE   1.00  13.0   NNE   51.9   53.6   51.9   49.3  30.066  0.00  0.00     3     0.04      5     0.0  0.00   0.0   0.079   0.000   70.0    50   50.5   68.3   9.25  .0744    0.000   212    5    100.0   10 
 5/23/19  6:20a   53.6   53.7   53.6    88   50.1   6.0   ENE   1.00  14.0    NE   51.9   53.6   51.9   49.5  30.068  0.00  0.00     8     0.11     11     0.0  0.00   0.0   0.079   0.000   70.0    51   51.0   68.4   9.45  .0744    0.000   211    5    100.0   10 
 5/23/19  6:30a   53.4   53.6   53.4    88   49.9   5.0   ENE   0.83  10.0     E   52.2   53.4   52.2   49.8  30.064  0.00  0.00    10     0.14     11     0.0  0.00   0.0   0.081   0.000   70.0    51   51.0   68.4   9.45  .0743    0.000   214    5    100.0   10 
 5/23/19  6:40a   53.3   53.4   53.3    89   50.1   6.0   ENE   1.00  12.0    NE   51.6   53.4   51.7   49.4  30.066  0.00  0.00    13     0.19     16     0.0  0.00   0.0   0.081   0.000   70.0    51   51.0   68.4   9.45  .0743    0.000   213    5    100.0   10 
 5/23/19  6:50a   53.3   53.4   53.3    89   50.1   5.0   ENE   0.83  10.0    NE   52.1   53.4   52.2   50.0  30.067  0.00  0.00    17     0.24     19     0.0  0.00   0.0   0.081   0.000   70.1    51   51.1   68.5   9.45  .0743    0.000   213    5    100.0   10 
 5/23/19  7:00a   53.3   53.4   53.3    89   50.1   5.0   ENE   0.83  12.0   ENE   52.1   53.4   52.2   50.2  30.068  0.00  0.00    25     0.36     28     0.0  0.00   0.0   0.081   0.000   70.1    51   51.1   68.5   9.45  .0743    0.001   213    5    100.0   10 
 5/23/19  7:10a   53.3   53.3   53.3    89   50.1   4.0   ENE   0.67  10.0   ENE   52.7   53.4   52.8   50.9  30.068  0.01  0.00    31     0.44     33     0.0  0.00   0.0   0.081   0.000   70.1    51   51.1   68.5   9.45  .0743    0.000   210    5    100.0   10 
 5/23/19  7:20a   53.2   53.3   53.2    89   50.0   5.0   ENE   0.83  10.0   ENE   51.9   53.3   52.0   52.1  30.070  0.00  0.00    44     0.63     54     0.0  0.00   0.0   0.082   0.000   70.2    51   51.2   68.6   9.45  .0743    0.000   212    5    100.0   10 
 5/23/19  7:30a   53.2   53.3   53.2    89   50.0   5.0   ENE   0.83  14.0    NE   51.9   53.3   52.0   52.2  30.070  0.00  0.00    45     0.65     65     0.0  0.00   0.0   0.082   0.000   70.2    51   51.2   68.6   9.45  .0743    0.000   213    5    100.0   10 
 5/23/19  7:40a   53.3   53.3   53.2    89   50.1   6.0   ENE   1.00  13.0   NNE   51.6   53.4   51.7   52.5  30.067  0.00  0.00    61     0.87     67     0.0  0.00   0.0   0.081   0.000   70.2    51   51.2   68.6   9.45  .0743    0.000   211    5    100.0   10 
 5/23/19  7:50a   53.4   53.4   53.3    89   50.2   4.0   ENE   0.67  11.0   ENE   52.8   53.5   52.9   54.4  30.065  0.00  0.00    79     1.13     88     0.0  0.00   0.0   0.081   0.000   70.2    51   51.2   68.6   9.45  .0743    0.000   212    5    100.0   10 
 5/23/19  8:00a   53.7   53.7   53.4    89   50.5   3.0   ENE   0.50   6.0   ENE   53.7   53.8   53.8   55.7  30.058  0.00  0.00    90     1.29    111     0.0  0.00   0.0   0.078   0.000   70.3    51   51.3   68.8   9.44  .0743    0.002   213    5    100.0   10 
 5/23/19  8:10a   53.9   53.9   53.7    89   50.7   4.0   ENE   0.67   8.0   NNE   53.4   54.0   53.5   57.3  30.060  0.00  0.00   144     2.06    155     0.0  0.00   0.0   0.077   0.000   70.3    51   51.3   68.8   9.44  .0743    0.000   213    5    100.0   10 
 5/23/19  8:20a   54.1   54.1   53.9    89   50.9   3.0   NNE   0.50   6.0   NNE   54.1   54.2   54.2   57.7  30.061  0.00  0.00   139     1.99    144     0.0  0.00   0.0   0.076   0.000   70.3    51   51.3   68.8   9.44  .0743    0.000   211    5    100.0   10 
 5/23/19  8:30a   54.1   54.3   54.1    89   50.9   3.0   NNE   0.50   7.0    NE   54.1   54.2   54.2   57.1  30.064  0.00  0.00   126     1.81    137     0.0  0.00   0.0   0.076   0.000   70.3    51   51.3   68.8   9.44  .0743    0.000   211    5    100.0   10 
 5/23/19  8:40a   53.8   54.1   53.8    89   50.6   4.0     N   0.67   8.0   NNE   53.3   53.9   53.4   55.7  30.069  0.00  0.00   115     1.65    118     0.0  0.00   0.0   0.078   0.000   70.4    51   51.4   68.9   9.44  .0743    0.000   212    5    100.0   10 
 5/23/19  8:50a   53.9   53.9   53.6    89   50.7   5.0     N   0.83   9.0   NNE   52.8   54.0   52.9   55.4  30.071  0.00  0.00   124     1.78    135     0.0  0.00   0.0   0.077   0.000   70.4    51   51.4   68.9   9.44  .0743    0.000   212    5    100.0   10 
 5/23/19  9:00a   53.9   54.0   53.9    89   50.7   4.0     N   0.67   8.0   NNE   53.4   54.0   53.5   56.1  30.072  0.00  0.00   131     1.88    139     0.0  0.00   0.0   0.077   0.000   70.4    51   51.4   68.9   9.44  .0743    0.003   213    5    100.0   10 
 5/23/19  9:10a   53.8   53.9   53.7    89   50.6   4.0     N   0.67   6.0     E   53.3   53.9   53.4   55.0  30.077  0.00  0.00   106     1.52    120     0.0  0.00   0.0   0.078   0.000   70.4    51   51.4   68.9   9.44  .0743    0.000   213    5    100.0   10 
 5/23/19  9:20a   54.3   54.3   53.8    89   51.1   2.0   NNE   0.33   5.0   NNE   54.3   54.4   54.4   57.1  30.074  0.00  0.00   141     2.02    155     0.0  0.00   0.0   0.074   0.000   70.4    51   51.4   68.9   9.44  .0743    0.000   212    5    100.0   10 
 5/23/19  9:30a   54.5   54.5   54.2    89   51.3   4.0    NE   0.67   7.0   ENE   54.1   54.6   54.2   57.8  30.070  0.00  0.00   176     2.52    193     0.0  0.00   0.0   0.073   0.000   70.5    51   51.5   69.0   9.44  .0743    0.000   214    5    100.0   10 
 5/23/19  9:40a   54.6   54.8   54.5    89   51.4   5.0    NE   0.83  11.0   NNE   53.6   54.7   53.7   57.3  30.067  0.00  0.00   183     2.62    193     0.0  0.00   0.0   0.072   0.000   70.5    51   51.5   69.0   9.44  .0743    0.000   211    5    100.0   10 
 5/23/19  9:50a   54.6   54.6   54.6    89   51.4   7.0    NE   1.17  12.0    NE   52.7   54.7   52.8   56.2  30.066  0.00  0.00   179     2.57    195     0.0  0.00   0.0   0.072   0.000   70.5    51   51.5   69.0   9.44  .0743    0.000   211    5    100.0   10 
 5/23/19 10:00a   54.6   54.7   54.5    89   51.4   8.0    NE   1.33  12.0    NE   52.0   54.7   52.1   55.2  30.069  0.00  0.00   182     2.61    195     0.0  0.00   0.0   0.072   0.000   70.6    51   51.6   69.2   9.44  .0742    0.003   209    5    100.0   10 
 5/23/19 10:10a   54.6   54.6   54.5    89   51.4   6.0    NE   1.00  11.0    NE   53.1   54.7   53.2   55.6  30.069  0.00  0.00   150     2.15    160     0.0  0.00   0.0   0.072   0.000   70.6    51   51.6   69.2   9.44  .0742    0.000   212    5    100.0   10 
 5/23/19 10:20a   54.7   54.8   54.6    89   51.5   5.0   NNE   0.83  10.0    NE   53.7   54.8   53.8   56.7  30.069  0.00  0.00   173     2.48    207     0.0  0.00   0.0   0.072   0.000   70.6    51   51.6   69.2   9.44  .0742    0.000   212    5    100.0   10 
 5/23/19 10:30a   54.9   55.0   54.7    89   51.7   5.0    NE   0.83  12.0    NE   54.0   55.0   54.1   57.2  30.068  0.00  0.00   186     2.67    206     0.0  0.00   0.0   0.070   0.000   70.6    51   51.6   69.2   9.44  .0742    0.000   214    5    100.0   10 
 5/23/19 10:40a   54.9   55.0   54.8    89   51.7   6.0    NE   1.00  11.0   ENE   53.5   55.0   53.6   57.6  30.067  0.00  0.00   228     3.27    236     0.0  0.00   0.0   0.070   0.000   70.7    51   51.7   69.3   9.44  .0742    0.000   213    5    100.0   10 
 5/23/19 10:50a   54.9   55.0   54.8    89   51.7   6.0    NE   1.00  12.0   NNE   53.5   55.0   53.6   56.8  30.067  0.00  0.00   198     2.84    232     0.0  0.00   0.0   0.070   0.000   70.7    51   51.7   69.3   9.44  .0742    0.000   212    5    100.0   10 
 5/23/19 11:00a   55.0   55.0   54.9    89   51.8   6.0   NNE   1.00  10.0   ENE   53.6   55.1   53.7   57.0  30.064  0.00  0.00   203     2.91    225     0.0  0.00   0.0   0.069   0.000   70.7    51   51.7   69.3   9.44  .0742    0.004   214    5    100.0   10 
 5/23/19 11:10a   54.8   55.0   54.8    89   51.6   7.0   NNE   1.17  12.0   NNE   53.0   54.9   53.1   56.5  30.063  0.00  0.00   210     3.01    221     0.0  0.00   0.0   0.071   0.000   70.7    51   51.7   69.3   9.44  .0742    0.000   212    5    100.0   10 
 5/23/19 11:20a   55.0   55.0   54.8    89   51.8   7.0    NE   1.17  11.0    NE   53.2   55.1   53.3   56.8  30.065  0.00  0.00   218     3.13    225     0.0  0.00   0.0   0.069   0.000   70.8    51   51.8   69.4   9.43  .0742    0.000   211    5    100.0   10 
 5/23/19 11:30a   55.1   55.1   55.0    89   51.9   7.0    NE   1.17  12.0    NE   53.3   55.2   53.4   57.2  30.063  0.00  0.00   237     3.40    267     0.0  0.00   0.0   0.069   0.000   70.8    51   51.8   69.4   9.43  .0742    0.000   214    5    100.0   10 
 5/23/19 11:40a   55.4   55.4   55.1    89   52.2   5.0   ENE   0.83  12.0    NE   54.6   55.5   54.7   59.4  30.061  0.00  0.00   275     3.94    287     0.0  0.00   0.0   0.067   0.000   70.9    51   51.9   69.6   9.43  .0742    0.000   213    5    100.0   10 
 5/23/19 11:50a   55.6   55.6   55.4    89   52.4   6.0    NE   1.00  11.0   ENE   54.3   55.7   54.4   59.2  30.063  0.00  0.00   280     4.01    301     0.0  0.00   0.0   0.065   0.000   70.9    51   51.9   69.6   9.43  .0742    0.000   212    5    100.0   10 
 5/23/19 12:00p   55.6   55.6   55.5    88   52.1   6.0    NE   1.00  11.0   NNE   54.3   55.6   54.3   58.9  30.063  0.00  0.00   273     3.91    281     0.0  0.00   0.0   0.065   0.000   70.9    51   51.9   69.6   9.43  .0742    0.005   214    5    100.0   10 
 5/23/19 12:10p   55.5   55.6   55.5    88   52.0   7.0   NNE   1.17  12.0   NNE   53.8   55.5   53.8   58.0  30.067  0.00  0.00   260     3.73    279     0.0  0.00   0.0   0.066   0.000   71.0    51   52.0   69.7   9.43  .0742    0.000   211    5    100.0   10 
 5/23/19 12:20p   55.5   55.5   55.4    88   52.0   8.0    NE   1.33  13.0    NE   53.1   55.5   53.1   57.0  30.066  0.00  0.00   253     3.63    258     0.0  0.00   0.0   0.066   0.000   71.0    51   52.0   69.7   9.43  .0742    0.000   212    5    100.0   10 
 5/23/19 12:30p   55.7   55.7   55.4    88   52.2   8.0    NE   1.33  13.0   NNE   53.3   55.7   53.3   57.2  30.072  0.00  0.00   253     3.63    265     0.0  0.00   0.0   0.065   0.000   71.0    51   52.0   69.7   9.43  .0742    0.000   214    5    100.0   10 
 5/23/19 12:40p   55.7   55.7   55.5    88   52.2   7.0    NE   1.17  13.0    NE   54.0   55.7   54.0   57.8  30.071  0.00  0.00   243     3.48    246     0.0  0.00   0.0   0.065   0.000   71.0    51   52.0   69.7   9.43  .0742    0.000   212    5    100.0   10 
 5/23/19 12:50p   55.6   55.7   55.6    88   52.1   9.0    NE   1.50  13.0    NE   52.5   55.6   52.5   56.3  30.069  0.00  0.00   260     3.73    288     0.0  0.00   0.0   0.065   0.000   71.1    51   52.0   69.8   9.43  .0742    0.000   210    5    100.0   10 
 5/23/19  1:00p   55.7   55.7   55.6    88   52.2   8.0    NE   1.33  12.0   NNE   53.3   55.7   53.3   57.5  30.070  0.00  0.00   266     3.81    287     0.0  0.00   0.0   0.065   0.000   71.1    51   52.0   69.8   9.43  .0742    0.006   211    5    100.0   10 
 5/23/19  1:10p   55.6   55.7   55.6    88   52.1   8.0    NE   1.33  13.0   NNE   53.2   55.6   53.2   56.2  30.067  0.00  0.00   211     3.02    264     0.0  0.00   0.0   0.065   0.000   71.1    51   52.0   69.8   9.43  .0742    0.000   210    5    100.0   10 
 5/23/19  1:20p   55.6   55.6   55.5    88   52.1   9.0    NE   1.50  13.0    NE   52.5   55.6   52.5   56.9  30.067  0.00  0.00   289     4.14    320     0.0  0.00   0.0   0.065   0.000   71.2    51   52.1   70.0   9.43  .0741    0.000   212    5    100.0   10 
 5/23/19  1:30p   55.7   55.8   55.6    88   52.2   7.0    NE   1.17  14.0    NE   54.0   55.7   54.0   57.8  30.067  0.00  0.00   245     3.51    309     0.0  0.00   0.0   0.065   0.000   71.2    51   52.1   70.0   9.43  .0741    0.000   212    5    100.0   10 
 5/23/19  1:40p   55.7   55.7   55.6    88   52.2   9.0    NE   1.50  15.0    NE   52.6   55.7   52.6   56.7  30.067  0.00  0.00   271     3.88    322     0.0  0.00   0.0   0.065   0.000   71.2    51   52.1   70.0   9.43  .0741    0.000   211    5    100.0   10 
 5/23/19  1:50p   55.9   55.9   55.7    88   52.4   8.0    NE   1.33  14.0    NE   53.6   55.9   53.6   59.1  30.064  0.00  0.00   336     4.82    355     0.0  0.00   0.0   0.063   0.000   71.2    51   52.1   70.0   9.43  .0741    0.000   211    5    100.0   10 
 5/23/19  2:00p   55.9   56.0   55.9    88   52.4   6.0    NE   1.00  11.0   NNE   54.7   55.9   54.7   58.9  30.062  0.00  0.00   260     3.73    295     0.0  0.00   0.0   0.063   0.000   71.3    51   52.2   70.1   9.42  .0741    0.006   212    5    100.0   10 
 5/23/19  2:10p   56.0   56.0   55.9    88   52.5   5.0    NE   0.83  11.0   NNE   55.3   56.0   55.3   59.3  30.061  0.00  0.00   247     3.54    260     0.0  0.00   0.0   0.063   0.000   71.2    51   52.1   70.0   9.43  .0741    0.000   211    5    100.0   10 
 5/23/19  2:20p   56.1   56.2   56.0    88   52.6   5.0   NNE   0.83  10.0   NNE   55.4   56.1   55.4   60.6  30.058  0.00  0.00   298     4.27    316     0.0  0.00   0.0   0.062   0.000   71.3    51   52.2   70.1   9.42  .0741    0.000   212    5    100.0   10 
 5/23/19  2:30p   55.9   56.1   55.9    88   52.4   6.0    NE   1.00  10.0    NE   54.7   55.9   54.7   58.1  30.056  0.00  0.00   220     3.15    292     0.0  0.00   0.0   0.063   0.000   71.3    51   52.2   70.1   9.42  .0741    0.000   212    5    100.0   10 
 5/23/19  2:40p   55.9   55.9   55.8    88   52.4   5.0   ENE   0.83  10.0   ENE   55.2   55.9   55.2   58.1  30.055  0.00  0.00   198     2.84    204     0.0  0.00   0.0   0.063   0.000   71.3    51   52.2   70.1   9.42  .0741    0.000   212    5    100.0   10 
 5/23/19  2:50p   56.1   56.2   55.9    88   52.6   5.0   ENE   0.83  12.0   NNE   55.4   56.1   55.4   58.6  30.054  0.00  0.00   208     2.98    246     0.0  0.00   0.0   0.062   0.000   71.3    51   52.2   70.1   9.42  .0741    0.000   213    5    100.0   10 
 5/23/19  3:00p   56.2   56.3   56.0    88   52.7   5.0    NE   0.83  10.0   ENE   55.5   56.2   55.5   59.8  30.052  0.00  0.00   258     3.70    272     0.0  0.00   0.0   0.061   0.000   71.4    51   52.3   70.3   9.42  .0741    0.005   213    5    100.0   10 
 5/23/19  3:10p   56.0   56.2   56.0    87   52.2   5.0   ENE   0.83  11.0   NNE   55.3   56.0   55.3   58.6  30.052  0.00  0.00   209     3.00    248     0.0  0.00   0.0   0.063   0.000   71.4    51   52.3   70.3   9.42  .0741    0.000   212    5    100.0   10 
 5/23/19  3:20p   55.9   56.0   55.9    88   52.4   5.0    NE   0.83  10.0   ENE   55.2   55.9   55.2   59.1  30.050  0.00  0.00   236     3.38    255     0.0  0.00   0.0   0.063   0.000   71.4    51   52.3   70.3   9.42  .0741    0.000   213    5    100.0   10 
 5/23/19  3:30p   55.9   56.1   55.9    88   52.4   5.0    NE   0.83   9.0    NE   55.2   55.9   55.2   58.5  30.049  0.00  0.00   205     2.94    236     0.0  0.00   0.0   0.063   0.000   71.4    51   52.3   70.3   9.42  .0741    0.000   212    5    100.0   10 
 5/23/19  3:40p   55.8   56.0   55.7    88   52.3   7.0    NE   1.17  10.0    NE   54.2   55.8   54.2   57.4  30.047  0.00  0.00   198     2.84    265     0.0  0.00   0.0   0.064   0.000   71.5    51   52.4   70.4   9.42  .0740    0.000   213    5    100.0   10 
 5/23/19  3:50p   55.8   55.9   55.7    88   52.3   5.0   NNE   0.83   9.0    NE   55.1   55.8   55.1   59.1  30.046  0.00  0.00   230     3.30    264     0.0  0.00   0.0   0.064   0.000   71.5    51   52.4   70.4   9.42  .0740    0.000   212    5    100.0   10 
 5/23/19  4:00p   56.1   56.2   55.8    88   52.6   5.0   NNE   0.83  10.0    NE   55.4   56.1   55.4   61.4  30.046  0.00  0.00   313     4.49    346     0.0  0.00   0.0   0.062   0.000   71.5    51   52.4   70.4   9.42  .0740    0.005   212    5    100.0   10 
 5/23/19  4:10p   56.0   56.3   56.0    88   52.5   6.0    NE   1.00  10.0    NE   54.8   56.0   54.8   58.7  30.044  0.00  0.00   220     3.15    287     0.0  0.00   0.0   0.063   0.000   71.5    51   52.4   70.4   9.42  .0740    0.000   212    5    100.0   10 
 5/23/19  4:20p   55.8   56.0   55.8    88   52.3   6.0    NE   1.00  10.0   ENE   54.6   55.8   54.6   56.8  30.046  0.00  0.00   148     2.12    163     0.0  0.00   0.0   0.064   0.000   71.6    51   52.5   70.6   9.42  .0740    0.000   212    5    100.0   10 
 5/23/19  4:30p   55.7   55.9   55.7    88   52.2   6.0    NE   1.00  11.0   ENE   54.4   55.7   54.4   56.4  30.046  0.00  0.00   138     1.98    160     0.0  0.00   0.0   0.065   0.000   71.6    51   52.5   70.6   9.42  .0740    0.000   212    5    100.0   10 
 5/23/19  4:40p   55.6   55.7   55.5    88   52.1   6.0    NE   1.00  10.0   NNE   54.3   55.6   54.3   57.1  30.048  0.00  0.00   162     2.32    181     0.0  0.00   0.0   0.065   0.000   71.6    51   52.5   70.6   9.42  .0740    0.000   212    5    100.0   10 
 5/23/19  4:50p   55.6   55.7   55.5    88   52.1   5.0   ENE   0.83   9.0    NE   54.8   55.6   54.8   57.1  30.046  0.00  0.00   140     2.01    155     0.0  0.00   0.0   0.065   0.000   71.6    51   52.5   70.6   9.42  .0740    0.000   211    5    100.0   10 
 5/23/19  5:00p   55.4   55.6   55.4    88   51.9   5.0    NE   0.83  12.0   NNE   54.6   55.4   54.6   56.2  30.046  0.00  0.00   116     1.66    123     0.0  0.00   0.0   0.067   0.000   71.6    51   52.5   70.6   9.42  .0740    0.004   212    5    100.0   10 
 5/23/19  5:10p   55.4   55.4   55.3    88   51.9   5.0    NE   0.83  11.0   NNE   54.6   55.4   54.6   56.3  30.049  0.00  0.00   114     1.63    130     0.0  0.00   0.0   0.067   0.000   71.6    51   52.5   70.6   9.42  .0740    0.000   213    5    100.0   10 
 5/23/19  5:20p   55.3   55.4   55.2    88   51.8   5.0    NE   0.83  10.0   NNE   54.5   55.3   54.5   56.2  30.050  0.00  0.00   113     1.62    123     0.0  0.00   0.0   0.067   0.000   71.6    51   52.5   70.6   9.42  .0740    0.000   211    5    100.0   10 
 5/23/19  5:30p   55.3   55.3   55.2    88   51.8   5.0    NE   0.83   9.0    NE   54.5   55.3   54.5   55.7  30.049  0.00  0.00    94     1.35    111     0.0  0.00   0.0   0.067   0.000   71.6    51   52.5   70.6   9.42  .0740    0.000   213    5    100.0   10 
 5/23/19  5:40p   55.3   55.3   55.3    89   52.1   5.0   ENE   0.83  10.0   ENE   54.5   55.4   54.6   56.4  30.049  0.00  0.00   107     1.53    116     0.0  0.00   0.0   0.067   0.000   71.6    51   52.5   70.6   9.42  .0740    0.000   210    5    100.0   10 
 5/23/19  5:50p   55.1   55.3   55.1    88   51.6   5.0   NNE   0.83  11.0    NE   54.2   55.1   54.2   55.8  30.048  0.00  0.00    97     1.39    111     0.0  0.00   0.0   0.069   0.000   71.6    51   52.5   70.6   9.42  .0740    0.000   212    5    100.0   10 
 5/23/19  6:00p   55.1   55.2   55.1    88   51.6   5.0   ENE   0.83   9.0    NE   54.2   55.1   54.2   55.4  30.046  0.00  0.00    85     1.22    102     0.0  0.00   0.0   0.069   0.000   71.6    51   52.5   70.6   9.42  .0740    0.002   211    5    100.0   10 
 5/23/19  6:10p   55.0   55.1   54.9    89   51.8   5.0   ENE   0.83   9.0   ENE   54.1   55.1   54.2   54.8  30.044  0.00  0.00    67     0.96     76     0.0  0.00   0.0   0.069   0.000   71.6    51   52.5   70.6   9.42  .0740    0.000   212    5    100.0   10 
 5/23/19  6:20p   55.0   55.1   55.0    89   51.8   5.0   ENE   0.83   9.0   ENE   54.1   55.1   54.2   55.2  30.039  0.00  0.00    72     1.03     81     0.0  0.00   0.0   0.069   0.000   71.6    51   52.5   70.6   9.42  .0740    0.000   213    5    100.0   10 
 5/23/19  6:30p   54.9   55.0   54.9    89   51.7   5.0   ENE   0.83  10.0   NNE   54.0   55.0   54.1   55.0  30.036  0.00  0.00    67     0.96     72     0.0  0.00   0.0   0.070   0.000   71.6    51   52.5   70.6   9.42  .0740    0.000   213    5    100.0   10 
 5/23/19  6:40p   54.8   54.9   54.8    89   51.6   4.0    NE   0.67   9.0    NE   54.4   54.9   54.5   54.8  30.034  0.00  0.00    53     0.76     56     0.0  0.00   0.0   0.071   0.000   71.5    51   52.4   70.4   9.42  .0740    0.000   212    5    100.0   10 
 5/23/19  6:50p   54.6   54.8   54.6    89   51.4   5.0   ENE   0.83   9.0     E   53.6   54.7   53.7   53.8  30.033  0.00  0.00    46     0.66     49     0.0  0.00   0.0   0.072   0.000   71.5    51   52.4   70.4   9.42  .0740    0.000   212    5    100.0   10 
 5/23/19  7:00p   54.6   54.7   54.6    89   51.4   5.0   ENE   0.83   9.0   ENE   53.6   54.7   53.7   53.9  30.029  0.00  0.00    46     0.66     49     0.0  0.00   0.0   0.072   0.000   71.5    51   52.4   70.4   9.42  .0740    0.002   212    5    100.0   10 
 5/23/19  7:10p   54.5   54.6   54.5    89   51.3   5.0   ENE   0.83  11.0     E   53.5   54.6   53.6   53.6  30.027  0.00  0.00    40     0.57     46     0.0  0.00   0.0   0.073   0.000   71.5    51   52.4   70.4   9.42  .0740    0.000   210    5    100.0   10 
 5/23/19  7:20p   54.5   54.5   54.4    89   51.3   4.0   ENE   0.67  11.0    NE   54.1   54.6   54.2   54.0  30.026  0.00  0.00    36     0.52     39     0.0  0.00   0.0   0.073   0.000   71.6    51   52.5   70.6   9.42  .0740    0.000   212    5    100.0   10 
 5/23/19  7:30p   54.5   54.5   54.4    89   51.3   4.0   ENE   0.67   9.0   NNE   54.1   54.6   54.2   52.4  30.027  0.00  0.00    32     0.46     33     0.0  0.00   0.0   0.073   0.000   71.5    51   52.4   70.4   9.42  .0740    0.000   213    5    100.0   10 
 5/23/19  7:40p   54.4   54.5   54.4    89   51.2   4.0    NE   0.67   8.0   ENE   53.9   54.5   54.0   52.1  30.031  0.00  0.00    26     0.37     30     0.0  0.00   0.0   0.074   0.000   71.5    51   52.4   70.4   9.42  .0740    0.000   211    5    100.0   10 
 5/23/19  7:50p   54.4   54.5   54.4    89   51.2   5.0   ENE   0.83  10.0   ENE   53.4   54.5   53.5   51.4  30.031  0.00  0.00    17     0.24     21     0.0  0.00   0.0   0.074   0.000   71.5    51   52.4   70.4   9.42  .0740    0.000   214    5    100.0   10 
 5/23/19  8:00p   54.4   54.4   54.4    89   51.2   4.0   ENE   0.67   8.0   NNE   53.9   54.5   54.0   51.7  30.035  0.00  0.00    11     0.16     12     0.0  0.00   0.0   0.074   0.000   71.5    51   52.4   70.4   9.42  .0740    0.001   213    5    100.0   10 
 5/23/19  8:10p   54.4   54.4   54.4    89   51.2   4.0   ENE   0.67   9.0     E   53.9   54.5   54.0   51.7  30.038  0.00  0.00     9     0.13     11     0.0  0.00   0.0   0.074   0.000   71.4    51   52.3   70.3   9.42  .0740    0.000   212    5    100.0   10 
 5/23/19  8:20p   54.2   54.4   54.2    89   51.0   4.0   ENE   0.67  10.0    NE   53.7   54.3   53.8   51.4  30.037  0.00  0.00     6     0.09      7     0.0  0.00   0.0   0.075   0.000   71.4    51   52.3   70.3   9.42  .0740    0.000   214    5    100.0   10 
 5/23/19  8:30p   54.2   54.2   54.1    89   51.0   4.0   ENE   0.67  10.0   ENE   53.7   54.3   53.8   51.3  30.037  0.00  0.00     1     0.01      5     0.0  0.00   0.0   0.075   0.000   71.4    51   52.3   70.3   9.42  .0740    0.000   211    5    100.0   10 
 5/23/19  8:40p   54.2   54.2   54.2    89   51.0   4.0    NE   0.67   8.0   NNE   53.7   54.3   53.8   51.3  30.039  0.00  0.00     0     0.00      0     0.0  0.00   0.0   0.075   0.000   71.3    51   52.2   70.1   9.42  .0741    0.000   211    5    100.0   10 
 5/23/19  8:50p   54.1   54.2   54.1    89   50.9   5.0    NE   0.83   8.0   NNE   53.0   54.2   53.1   50.5  30.041  0.00  0.00     0     0.00      0     0.0  0.00   0.0   0.076   0.000   71.3    51   52.2   70.1   9.42  .0741    0.000   213    5    100.0   10 
 5/23/19  9:00p   54.1   54.1   54.1    89   50.9   5.0    NE   0.83   9.0    NE   53.0   54.2   53.1   50.5  30.044  0.00  0.00     0     0.00      0     0.0  0.00   0.0   0.076   0.000   71.3    51   52.2   70.1   9.42  .0741    0.000   213    5    100.0   10 
 5/23/19  9:10p   54.1   54.2   54.1    89   50.9   5.0   NNE   0.83   9.0   NNE   53.0   54.2   53.1   50.5  30.050  0.00  0.00     0     0.00      0     0.0  0.00   0.0   0.076   0.000   71.3    51   52.2   70.1   9.42  .0741    0.000   211    5    100.0   10 
 5/23/19  9:20p   54.0   54.1   54.0    89   50.8   5.0    NE   0.83  10.0   NNE   52.9   54.1   53.0   50.4  30.054  0.00  0.00     0     0.00      0     0.0  0.00   0.0   0.076   0.000   71.2    51   52.1   70.0   9.43  .0741    0.000   214    5    100.0   10 
 5/23/19  9:30p   53.9   54.0   53.9    89   50.7   6.0    NE   1.00  10.0   NNE   52.3   54.0   52.4   49.8  30.051  0.00  0.00     0     0.00      0     0.0  0.00   0.0   0.077   0.000   71.2    51   52.1   70.0   9.43  .0741    0.000   210    5    100.0   10 
 5/23/19  9:40p   54.0   54.0   53.9    89   50.8   4.0    NE   0.67  10.0   NNE   53.5   54.1   53.6   51.0  30.049  0.00  0.00     0     0.00      0     0.0  0.00   0.0   0.076   0.000   71.2    51   52.1   70.0   9.43  .0741    0.000   209    5    100.0   10 
 5/23/19  9:50p   54.0   54.0   54.0    89   50.8   3.0   ENE   0.50   8.0   NNE   54.0   54.1   54.1   51.5  30.052  0.00  0.00     0     0.00      0     0.0  0.00   0.0   0.076   0.000   71.1    51   52.0   69.8   9.43  .0741    0.000   213    5    100.0   10 
 5/23/19 10:00p   54.0   54.0   54.0    89   50.8   4.0    NE   0.67   9.0    NE   53.5   54.1   53.6   51.0  30.054  0.00  0.00     0     0.00      0     0.0  0.00   0.0   0.076   0.000   71.1    51   52.0   69.8   9.43  .0741    0.001   213    5    100.0   10 
 5/23/19 10:10p   54.1   54.1   54.0    89   50.9   3.0    NE   0.50   8.0   ENE   54.1   54.2   54.2   51.6  30.055  0.00  0.00     0     0.00      0     0.0  0.00   0.0   0.076   0.000   71.0    51   52.0   69.7   9.43  .0741    0.000   214    5    100.0   10 
 5/23/19 10:20p   54.0   54.1   54.0    89   50.8   3.0   ENE   0.50   5.0   NNE   54.0   54.1   54.1   51.5  30.056  0.00  0.00     0     0.00      0     0.0  0.00   0.0   0.076   0.000   71.0    51   52.0   69.7   9.43  .0741    0.000   212    5    100.0   10 
 5/23/19 10:30p   54.0   54.0   54.0    89   50.8   2.0    NE   0.33   5.0    NE   54.0   54.1   54.1   51.5  30.060  0.00  0.00     0     0.00      0     0.0  0.00   0.0   0.076   0.000   71.0    51   52.0   69.7   9.43  .0742    0.000   213    5    100.0   10 
 5/23/19 10:40p   53.9   54.0   53.9    89   50.7   3.0    NE   0.50   7.0   ENE   53.9   54.0   54.0   51.4  30.061  0.00  0.00     0     0.00      0     0.0  0.00   0.0   0.077   0.000   71.0    51   52.0   69.7   9.43  .0742    0.000   210    5    100.0   10 
 5/23/19 10:50p   53.9   53.9   53.9    89   50.7   3.0   ENE   0.50   6.0   ENE   53.9   54.0   54.0   51.4  30.061  0.00  0.00     0     0.00      0     0.0  0.00   0.0   0.077   0.000   70.9    51   51.9   69.6   9.43  .0742    0.000   213    5    100.0   10 
 5/23/19 11:00p   53.9   53.9   53.8    89   50.7   2.0   ENE   0.33   4.0    NE   53.9   54.0   54.0   51.4  30.064  0.00  0.00     0     0.00      0     0.0  0.00   0.0   0.077   0.000   70.9    51   51.9   69.6   9.43  .0742    0.000   213    5    100.0   10 
 5/23/19 11:10p   53.9   53.9   53.9    89   50.7   2.0    NE   0.33   4.0    NE   53.9   54.0   54.0   51.4  30.064  0.00  0.00     0     0.00      0     0.0  0.00   0.0   0.077   0.000   70.9    51   51.9   69.6   9.43  .0742    0.000   212    5    100.0   10 
 5/23/19 11:20p   53.9   53.9   53.9    89   50.7   2.0    NE   0.33   4.0    NE   53.9   54.0   54.0   51.4  30.065  0.00  0.00     0     0.00      0     0.0  0.00   0.0   0.077   0.000   70.9    51   51.9   69.6   9.43  .0742    0.000   212    5    100.0   10 
 5/23/19 11:30p   53.7   53.9   53.7    89   50.5   3.0     N   0.50   8.0     N   53.7   53.8   53.8   51.2  30.069  0.00  0.00     0     0.00      0     0.0  0.00   0.0   0.078   0.000   70.8    51   51.8   69.4   9.43  .0742    0.000   212    5    100.0   10 
 5/23/19 11:40p   53.7   53.8   53.7    89   50.5   5.0   NNE   0.83  10.0   ENE   52.5   53.8   52.6   50.0  30.068  0.00  0.00     0     0.00      0     0.0  0.00   0.0   0.078   0.000   70.8    51   51.8   69.4   9.43  .0742    0.000   213    5    100.0   10 
 5/23/19 11:50p   53.7   53.7   53.7    89   50.5   4.0     N   0.67   7.0   ENE   53.1   53.8   53.2   50.6  30.068  0.00  0.00     0     0.00      0     0.0  0.00   0.0   0.078   0.000   70.7    51   51.7   69.3   9.44  .0742    0.000   212    5    100.0   10 
 5/24/19 12:00a   53.7   53.7   53.7    89   50.5   5.0    NE   0.83   9.0   NNE   52.5   53.8   52.6   50.0  30.067  0.00  0.00     0     0.00      0     0.0  0.00   0.0   0.078   0.000   70.7    51   51.7   69.3   9.44  .0742    0.001   212    5    100.0   10 
 5/24/19 12:10a   53.5   53.7   53.5    89   50.3   5.0    NE   0.83   9.0    NE   52.3   53.6   52.4   49.8  30.069  0.00  0.00     0     0.00      0     0.0  0.00   0.0   0.080   0.000   70.7    51   51.7   69.3   9.44  .0742    0.000   209    5    100.0   10 
 5/24/19 12:20a   53.6   53.6   53.5    89   50.4   4.0    NE   0.67   8.0   NNE   53.0   53.7   53.1   50.5  30.067  0.00  0.00     0     0.00      0     0.0  0.00   0.0   0.079   0.000   70.7    51   51.7   69.3   9.44  .0742    0.000   211    5    100.0   10 
 5/24/19 12:30a   53.6   53.6   53.5    89   50.4   1.0   ENE   0.17   4.0    NE   53.6   53.7   53.7   51.1  30.063  0.00  0.00     0     0.00      0     0.0  0.00   0.0   0.079   0.000   70.6    51   51.6   69.2   9.44  .0742    0.000   213    5    100.0   10 
 5/24/19 12:40a   53.6   53.6   53.5    89   50.4   1.0   ENE   0.17   2.0   ENE   53.6   53.7   53.7   51.1  30.060  0.00  0.00     0     0.00      0     0.0  0.00   0.0   0.079   0.000   70.6    51   51.6   69.2   9.44  .0742    0.000   209    5    100.0   10 
 5/24/19 12:50a   53.5   53.6   53.5    89   50.3   0.0   ENE   0.00   2.0   ENE   53.5   53.6   53.6   51.0  30.064  0.00  0.00     0     0.00      0     0.0  0.00   0.0   0.080   0.000   70.6    51   51.6   69.2   9.44  .0742    0.000   210    5    100.0   10 
 5/24/19  1:00a   53.5   53.6   53.5    88   50.0   1.0   ENE   0.17   2.0   ENE   53.5   53.5   53.5   50.9  30.066  0.00  0.00     0     0.00      0     0.0  0.00   0.0   0.080   0.000   70.5    51   51.5   69.0   9.44  .0743    0.000   212    5    100.0   10 
 5/24/19  1:10a   53.5   53.5   53.5    88   50.0   1.0   ENE   0.17   2.0   ENE   53.5   53.5   53.5   50.9  30.067  0.00  0.00     0     0.00      0     0.0  0.00   0.0   0.080   0.000   70.5    51   51.5   69.0   9.44  .0743    0.000   214    5    100.0   10 
 5/24/19  1:20a   53.5   53.5   53.5    88   50.0   1.0   ENE   0.17   2.0   ENE   53.5   53.5   53.5   50.9  30.069  0.00  0.00     0     0.00      0     0.0  0.00   0.0   0.080   0.000   70.5    51   51.5   69.0   9.44  .0743    0.000   209    5    100.0   10 
 5/24/19  1:30a   53.5   53.5   53.4    89   50.3   0.0   ENE   0.00   2.0   ENE   53.5   53.6   53.6   51.0  30.070  0.00  0.00     0     0.00      0     0.0  0.00   0.0   0.080   0.000   70.5    51   51.5   69.0   9.44  .0743    0.000   211    5    100.0   10 
 5/24/19  1:40a   53.4   53.5   53.4    89   50.2   0.0   ---   0.00   0.0   ---   53.4   53.5   53.5   50.9  30.070  0.00  0.00     0     0.00      0     0.0  0.00   0.0   0.081   0.000   70.4    51   51.4   68.9   9.44  .0743    0.000   214    5    100.0   10 
 5/24/19  1:50a   53.4   53.5   53.4    88   49.9   0.0   ---   0.00   0.0   ---   53.4   53.4   53.4   50.8  30.071  0.00  0.00     0     0.00      0     0.0  0.00   0.0   0.081   0.000   70.4    51   51.4   68.9   9.44  .0743    0.000   212    5    100.0   10 
Email: AdamSPAM@StormwatchersRetreat.com (To send me email remove the word 'SPAM' from my email address.)